sensor_id;sensor_type;location;lat;lon;timestamp;P1;durP1;ratioP1;P2;durP2;ratioP2
4174;SDS011;2101;48.290;14.382;2022-09-09T00:00:12;21.27;;;2.47;;
4174;SDS011;2101;48.290;14.382;2022-09-09T00:02:38;16.60;;;2.53;;
4174;SDS011;2101;48.290;14.382;2022-09-09T00:05:12;16.80;;;2.20;;
4174;SDS011;2101;48.290;14.382;2022-09-09T00:10:17;17.53;;;2.53;;
4174;SDS011;2101;48.290;14.382;2022-09-09T00:15:22;19.53;;;2.20;;
4174;SDS011;2101;48.290;14.382;2022-09-09T00:17:53;15.90;;;2.30;;
4174;SDS011;2101;48.290;14.382;2022-09-09T00:22:57;17.63;;;2.23;;
4174;SDS011;2101;48.290;14.382;2022-09-09T00:25:28;18.77;;;2.80;;
4174;SDS011;2101;48.290;14.382;2022-09-09T00:27:55;17.03;;;2.20;;
4174;SDS011;2101;48.290;14.382;2022-09-09T00:30:23;17.50;;;2.77;;
4174;SDS011;2101;48.290;14.382;2022-09-09T00:32:50;16.30;;;1.73;;
4174;SDS011;2101;48.290;14.382;2022-09-09T00:35:23;16.50;;;2.17;;
4174;SDS011;2101;48.290;14.382;2022-09-09T00:37:51;18.97;;;1.97;;
4174;SDS011;2101;48.290;14.382;2022-09-09T00:40:22;19.13;;;1.93;;
4174;SDS011;2101;48.290;14.382;2022-09-09T00:42:49;18.20;;;2.30;;
4174;SDS011;2101;48.290;14.382;2022-09-09T00:45:33;15.93;;;2.03;;
4174;SDS011;2101;48.290;14.382;2022-09-09T00:48:01;15.80;;;1.60;;
4174;SDS011;2101;48.290;14.382;2022-09-09T00:50:35;19.83;;;2.30;;
4174;SDS011;2101;48.290;14.382;2022-09-09T00:53:09;15.90;;;1.90;;
4174;SDS011;2101;48.290;14.382;2022-09-09T00:58:22;17.23;;;2.23;;
4174;SDS011;2101;48.290;14.382;2022-09-09T01:00:57;18.33;;;2.30;;
4174;SDS011;2101;48.290;14.382;2022-09-09T01:17:03;16.03;;;1.73;;
4174;SDS011;2101;48.290;14.382;2022-09-09T01:27:21;16.10;;;2.10;;
4174;SDS011;2101;48.290;14.382;2022-09-09T01:29:50;17.13;;;2.20;;
4174;SDS011;2101;48.290;14.382;2022-09-09T01:35:01;37.00;;;2.20;;
4174;SDS011;2101;48.290;14.382;2022-09-09T01:37:27;16.37;;;1.77;;
4174;SDS011;2101;48.290;14.382;2022-09-09T01:39:53;18.70;;;2.07;;
4174;SDS011;2101;48.290;14.382;2022-09-09T01:42:20;17.30;;;2.60;;
4174;SDS011;2101;48.290;14.382;2022-09-09T01:44:46;16.83;;;2.13;;
4174;SDS011;2101;48.290;14.382;2022-09-09T01:47:12;16.80;;;2.27;;
4174;SDS011;2101;48.290;14.382;2022-09-09T01:49:38;16.57;;;1.90;;
4174;SDS011;2101;48.290;14.382;2022-09-09T01:52:04;18.30;;;2.53;;
4174;SDS011;2101;48.290;14.382;2022-09-09T01:54:31;17.50;;;2.57;;
4174;SDS011;2101;48.290;14.382;2022-09-09T02:02:22;19.33;;;2.50;;
4174;SDS011;2101;48.290;14.382;2022-09-09T02:04:54;21.10;;;2.10;;
4174;SDS011;2101;48.290;14.382;2022-09-09T02:10:28;16.93;;;2.33;;
4174;SDS011;2101;48.290;14.382;2022-09-09T02:12:51;17.70;;;2.83;;
4174;SDS011;2101;48.290;14.382;2022-09-09T02:16:07;15.70;;;2.07;;
4174;SDS011;2101;48.290;14.382;2022-09-09T02:18:06;16.30;;;1.80;;
4174;SDS011;2101;48.290;14.382;2022-09-09T02:20:33;14.87;;;1.67;;
4174;SDS011;2101;48.290;14.382;2022-09-09T02:23:01;16.10;;;1.87;;
4174;SDS011;2101;48.290;14.382;2022-09-09T02:25:28;15.73;;;1.77;;
4174;SDS011;2101;48.290;14.382;2022-09-09T02:27:54;18.47;;;2.07;;
4174;SDS011;2101;48.290;14.382;2022-09-09T02:30:23;17.47;;;2.37;;
4174;SDS011;2101;48.290;14.382;2022-09-09T02:32:50;16.43;;;2.13;;
4174;SDS011;2101;48.290;14.382;2022-09-09T02:35:17;15.87;;;2.07;;
4174;SDS011;2101;48.290;14.382;2022-09-09T02:37:45;16.00;;;2.10;;
4174;SDS011;2101;48.290;14.382;2022-09-09T02:40:12;18.60;;;2.30;;
4174;SDS011;2101;48.290;14.382;2022-09-09T02:42:44;16.43;;;2.17;;
4174;SDS011;2101;48.290;14.382;2022-09-09T02:45:12;17.23;;;2.13;;
4174;SDS011;2101;48.290;14.382;2022-09-09T02:53:11;19.23;;;2.40;;
4174;SDS011;2101;48.290;14.382;2022-09-09T02:55:47;15.73;;;2.20;;
4174;SDS011;2101;48.290;14.382;2022-09-09T02:58:15;16.13;;;1.93;;
4174;SDS011;2101;48.290;14.382;2022-09-09T03:00:47;15.87;;;1.63;;
4174;SDS011;2101;48.290;14.382;2022-09-09T03:03:14;18.90;;;2.10;;
4174;SDS011;2101;48.290;14.382;2022-09-09T03:05:44;16.43;;;1.50;;
4174;SDS011;2101;48.290;14.382;2022-09-09T03:08:11;15.27;;;1.60;;
4174;SDS011;2101;48.290;14.382;2022-09-09T03:10:38;15.17;;;1.70;;
4174;SDS011;2101;48.290;14.382;2022-09-09T03:13:04;14.90;;;1.50;;
4174;SDS011;2101;48.290;14.382;2022-09-09T03:15:33;15.70;;;1.87;;
4174;SDS011;2101;48.290;14.382;2022-09-09T03:18:00;16.33;;;1.70;;
4174;SDS011;2101;48.290;14.382;2022-09-09T03:20:26;14.90;;;1.70;;
4174;SDS011;2101;48.290;14.382;2022-09-09T03:22:53;16.40;;;2.10;;
4174;SDS011;2101;48.290;14.382;2022-09-09T03:25:20;16.30;;;2.20;;
4174;SDS011;2101;48.290;14.382;2022-09-09T03:27:49;15.97;;;1.87;;
4174;SDS011;2101;48.290;14.382;2022-09-09T03:30:15;16.00;;;1.70;;
4174;SDS011;2101;48.290;14.382;2022-09-09T03:32:41;16.80;;;1.73;;
4174;SDS011;2101;48.290;14.382;2022-09-09T03:35:07;15.43;;;1.40;;
4174;SDS011;2101;48.290;14.382;2022-09-09T03:37:34;17.53;;;1.97;;
4174;SDS011;2101;48.290;14.382;2022-09-09T03:40:00;16.03;;;1.70;;
4174;SDS011;2101;48.290;14.382;2022-09-09T03:42:26;15.93;;;1.60;;
4174;SDS011;2101;48.290;14.382;2022-09-09T03:44:52;14.57;;;1.50;;
4174;SDS011;2101;48.290;14.382;2022-09-09T03:47:19;32.33;;;2.10;;
4174;SDS011;2101;48.290;14.382;2022-09-09T03:49:47;19.17;;;1.40;;
4174;SDS011;2101;48.290;14.382;2022-09-09T03:52:13;15.03;;;1.73;;
4174;SDS011;2101;48.290;14.382;2022-09-09T03:54:40;17.90;;;2.13;;
4174;SDS011;2101;48.290;14.382;2022-09-09T03:57:07;14.90;;;1.70;;
4174;SDS011;2101;48.290;14.382;2022-09-09T03:59:34;21.30;;;2.30;;
4174;SDS011;2101;48.290;14.382;2022-09-09T04:02:00;16.60;;;1.87;;
4174;SDS011;2101;48.290;14.382;2022-09-09T04:04:27;19.60;;;1.50;;
4174;SDS011;2101;48.290;14.382;2022-09-09T04:06:53;16.27;;;2.10;;
4174;SDS011;2101;48.290;14.382;2022-09-09T04:09:19;19.13;;;2.00;;
4174;SDS011;2101;48.290;14.382;2022-09-09T04:11:45;15.20;;;1.77;;
4174;SDS011;2101;48.290;14.382;2022-09-09T04:14:11;17.10;;;2.47;;
4174;SDS011;2101;48.290;14.382;2022-09-09T04:16:38;17.40;;;1.70;;
4174;SDS011;2101;48.290;14.382;2022-09-09T04:19:04;17.93;;;2.33;;
4174;SDS011;2101;48.290;14.382;2022-09-09T04:21:32;15.70;;;2.07;;
4174;SDS011;2101;48.290;14.382;2022-09-09T04:23:58;18.20;;;2.37;;
4174;SDS011;2101;48.290;14.382;2022-09-09T04:26:25;15.00;;;1.80;;
4174;SDS011;2101;48.290;14.382;2022-09-09T04:28:51;16.57;;;1.90;;
4174;SDS011;2101;48.290;14.382;2022-09-09T04:31:18;17.33;;;2.50;;
4174;SDS011;2101;48.290;14.382;2022-09-09T04:33:45;20.73;;;2.60;;
4174;SDS011;2101;48.290;14.382;2022-09-09T04:36:11;16.27;;;2.20;;
4174;SDS011;2101;48.290;14.382;2022-09-09T04:38:37;17.07;;;2.10;;
4174;SDS011;2101;48.290;14.382;2022-09-09T04:41:04;15.40;;;2.00;;
4174;SDS011;2101;48.290;14.382;2022-09-09T04:43:31;15.43;;;1.80;;
4174;SDS011;2101;48.290;14.382;2022-09-09T04:45:57;15.77;;;2.10;;
4174;SDS011;2101;48.290;14.382;2022-09-09T04:48:26;15.70;;;1.80;;
4174;SDS011;2101;48.290;14.382;2022-09-09T04:50:56;17.00;;;2.27;;
4174;SDS011;2101;48.290;14.382;2022-09-09T04:53:22;14.90;;;1.80;;
4174;SDS011;2101;48.290;14.382;2022-09-09T04:55:48;15.43;;;1.73;;
4174;SDS011;2101;48.290;14.382;2022-09-09T04:58:15;16.50;;;2.00;;
4174;SDS011;2101;48.290;14.382;2022-09-09T05:00:41;16.20;;;2.20;;
4174;SDS011;2101;48.290;14.382;2022-09-09T05:03:07;16.50;;;1.93;;
4174;SDS011;2101;48.290;14.382;2022-09-09T05:05:34;16.63;;;2.23;;
4174;SDS011;2101;48.290;14.382;2022-09-09T05:08:03;18.50;;;2.30;;
4174;SDS011;2101;48.290;14.382;2022-09-09T05:10:29;23.67;;;2.67;;
4174;SDS011;2101;48.290;14.382;2022-09-09T05:12:55;17.03;;;2.20;;
4174;SDS011;2101;48.290;14.382;2022-09-09T05:15:22;15.43;;;1.87;;
4174;SDS011;2101;48.290;14.382;2022-09-09T05:17:48;19.03;;;2.10;;
4174;SDS011;2101;48.290;14.382;2022-09-09T05:20:14;16.57;;;1.87;;
4174;SDS011;2101;48.290;14.382;2022-09-09T05:22:40;18.97;;;2.30;;
4174;SDS011;2101;48.290;14.382;2022-09-09T05:25:06;16.50;;;1.93;;
4174;SDS011;2101;48.290;14.382;2022-09-09T05:27:34;17.63;;;1.90;;
4174;SDS011;2101;48.290;14.382;2022-09-09T05:30:00;18.90;;;2.50;;
4174;SDS011;2101;48.290;14.382;2022-09-09T05:32:26;17.10;;;2.30;;
4174;SDS011;2101;48.290;14.382;2022-09-09T05:34:52;15.80;;;1.90;;
4174;SDS011;2101;48.290;14.382;2022-09-09T05:37:18;20.13;;;2.03;;
4174;SDS011;2101;48.290;14.382;2022-09-09T05:39:44;22.17;;;2.87;;
4174;SDS011;2101;48.290;14.382;2022-09-09T05:42:11;44.03;;;2.37;;
4174;SDS011;2101;48.290;14.382;2022-09-09T05:44:37;21.70;;;3.47;;
4174;SDS011;2101;48.290;14.382;2022-09-09T05:47:03;27.43;;;4.13;;
4174;SDS011;2101;48.290;14.382;2022-09-09T05:49:29;20.77;;;3.97;;
4174;SDS011;2101;48.290;14.382;2022-09-09T05:51:55;21.00;;;3.53;;
4174;SDS011;2101;48.290;14.382;2022-09-09T05:54:21;19.73;;;2.67;;
4174;SDS011;2101;48.290;14.382;2022-09-09T05:56:48;19.67;;;2.27;;
4174;SDS011;2101;48.290;14.382;2022-09-09T05:59:15;24.53;;;1.90;;
4174;SDS011;2101;48.290;14.382;2022-09-09T06:01:42;15.87;;;2.10;;
4174;SDS011;2101;48.290;14.382;2022-09-09T06:04:08;14.47;;;1.47;;
4174;SDS011;2101;48.290;14.382;2022-09-09T06:06:35;14.93;;;1.87;;
4174;SDS011;2101;48.290;14.382;2022-09-09T06:09:03;15.67;;;1.93;;
4174;SDS011;2101;48.290;14.382;2022-09-09T06:11:32;14.30;;;1.30;;
4174;SDS011;2101;48.290;14.382;2022-09-09T06:13:59;15.03;;;1.40;;
4174;SDS011;2101;48.290;14.382;2022-09-09T06:16:26;14.30;;;1.20;;
4174;SDS011;2101;48.290;14.382;2022-09-09T06:18:53;14.93;;;1.50;;
4174;SDS011;2101;48.290;14.382;2022-09-09T06:21:30;14.07;;;1.40;;
4174;SDS011;2101;48.290;14.382;2022-09-09T06:23:57;15.90;;;1.43;;
4174;SDS011;2101;48.290;14.382;2022-09-09T06:26:24;16.80;;;1.80;;
4174;SDS011;2101;48.290;14.382;2022-09-09T06:28:51;17.47;;;1.53;;
4174;SDS011;2101;48.290;14.382;2022-09-09T06:31:18;16.03;;;1.63;;
4174;SDS011;2101;48.290;14.382;2022-09-09T06:33:48;15.13;;;1.10;;
4174;SDS011;2101;48.290;14.382;2022-09-09T06:36:18;15.77;;;1.33;;
4174;SDS011;2101;48.290;14.382;2022-09-09T06:38:45;16.50;;;1.23;;
4174;SDS011;2101;48.290;14.382;2022-09-09T06:41:12;15.03;;;1.40;;
4174;SDS011;2101;48.290;14.382;2022-09-09T06:43:38;19.10;;;1.40;;
4174;SDS011;2101;48.290;14.382;2022-09-09T06:46:06;14.90;;;1.10;;
4174;SDS011;2101;48.290;14.382;2022-09-09T06:48:33;14.00;;;1.23;;
4174;SDS011;2101;48.290;14.382;2022-09-09T06:51:00;13.90;;;1.20;;
4174;SDS011;2101;48.290;14.382;2022-09-09T06:53:26;14.30;;;1.30;;
4174;SDS011;2101;48.290;14.382;2022-09-09T06:55:52;13.83;;;1.10;;
4174;SDS011;2101;48.290;14.382;2022-09-09T06:58:20;17.33;;;1.23;;
4174;SDS011;2101;48.290;14.382;2022-09-09T07:00:47;14.17;;;1.40;;
4174;SDS011;2101;48.290;14.382;2022-09-09T07:03:13;15.70;;;1.60;;
4174;SDS011;2101;48.290;14.382;2022-09-09T07:05:39;15.03;;;1.20;;
4174;SDS011;2101;48.290;14.382;2022-09-09T07:08:05;20.67;;;1.17;;
4174;SDS011;2101;48.290;14.382;2022-09-09T07:10:31;15.30;;;1.20;;
4174;SDS011;2101;48.290;14.382;2022-09-09T07:12:59;22.40;;;1.47;;
4174;SDS011;2101;48.290;14.382;2022-09-09T07:15:26;14.97;;;1.20;;
4174;SDS011;2101;48.290;14.382;2022-09-09T07:17:52;16.97;;;1.33;;
4174;SDS011;2101;48.290;14.382;2022-09-09T07:20:18;14.20;;;1.20;;
4174;SDS011;2101;48.290;14.382;2022-09-09T07:22:45;14.37;;;1.23;;
4174;SDS011;2101;48.290;14.382;2022-09-09T07:25:11;15.20;;;1.10;;
4174;SDS011;2101;48.290;14.382;2022-09-09T07:27:39;15.90;;;1.40;;
4174;SDS011;2101;48.290;14.382;2022-09-09T07:30:05;13.50;;;1.13;;
4174;SDS011;2101;48.290;14.382;2022-09-09T07:32:32;15.60;;;1.17;;
4174;SDS011;2101;48.290;14.382;2022-09-09T07:34:58;13.83;;;1.00;;
4174;SDS011;2101;48.290;14.382;2022-09-09T07:37:24;13.80;;;1.27;;
4174;SDS011;2101;48.290;14.382;2022-09-09T07:39:51;13.97;;;1.17;;
4174;SDS011;2101;48.290;14.382;2022-09-09T07:42:17;16.83;;;1.43;;
4174;SDS011;2101;48.290;14.382;2022-09-09T07:44:44;17.20;;;1.40;;
4174;SDS011;2101;48.290;14.382;2022-09-09T07:47:10;23.30;;;1.10;;
4174;SDS011;2101;48.290;14.382;2022-09-09T07:49:36;14.63;;;1.50;;
4174;SDS011;2101;48.290;14.382;2022-09-09T07:52:02;15.13;;;1.70;;
4174;SDS011;2101;48.290;14.382;2022-09-09T07:54:28;14.30;;;1.10;;
4174;SDS011;2101;48.290;14.382;2022-09-09T07:56:54;24.13;;;1.17;;
4174;SDS011;2101;48.290;14.382;2022-09-09T07:59:20;18.17;;;1.40;;
4174;SDS011;2101;48.290;14.382;2022-09-09T08:01:50;14.90;;;1.10;;
4174;SDS011;2101;48.290;14.382;2022-09-09T08:04:20;14.07;;;1.30;;
4174;SDS011;2101;48.290;14.382;2022-09-09T08:06:50;14.00;;;1.10;;
4174;SDS011;2101;48.290;14.382;2022-09-09T08:09:18;13.30;;;1.03;;
4174;SDS011;2101;48.290;14.382;2022-09-09T08:11:44;13.97;;;1.20;;
4174;SDS011;2101;48.290;14.382;2022-09-09T08:14:11;14.37;;;1.00;;
4174;SDS011;2101;48.290;14.382;2022-09-09T08:16:41;14.27;;;1.20;;
4174;SDS011;2101;48.290;14.382;2022-09-09T08:19:08;13.70;;;1.10;;
4174;SDS011;2101;48.290;14.382;2022-09-09T08:21:35;14.30;;;1.20;;
4174;SDS011;2101;48.290;14.382;2022-09-09T08:24:02;14.20;;;1.00;;
4174;SDS011;2101;48.290;14.382;2022-09-09T08:26:31;13.47;;;1.10;;
4174;SDS011;2101;48.290;14.382;2022-09-09T08:28:58;13.53;;;1.00;;
4174;SDS011;2101;48.290;14.382;2022-09-09T08:33:51;20.50;;;1.30;;
4174;SDS011;2101;48.290;14.382;2022-09-09T08:36:19;17.43;;;1.37;;
4174;SDS011;2101;48.290;14.382;2022-09-09T08:38:49;14.20;;;1.37;;
4174;SDS011;2101;48.290;14.382;2022-09-09T08:43:50;15.50;;;1.30;;
4174;SDS011;2101;48.290;14.382;2022-09-09T08:51:36;15.50;;;1.30;;
4174;SDS011;2101;48.290;14.382;2022-09-09T08:54:02;13.70;;;1.17;;
4174;SDS011;2101;48.290;14.382;2022-09-09T08:56:30;16.43;;;1.50;;
4174;SDS011;2101;48.290;14.382;2022-09-09T08:58:56;14.50;;;1.70;;
4174;SDS011;2101;48.290;14.382;2022-09-09T09:01:40;15.10;;;1.23;;
4174;SDS011;2101;48.290;14.382;2022-09-09T09:06:59;14.60;;;1.60;;
4174;SDS011;2101;48.290;14.382;2022-09-09T09:11:59;14.27;;;1.30;;
4174;SDS011;2101;48.290;14.382;2022-09-09T09:14:29;14.00;;;1.37;;
4174;SDS011;2101;48.290;14.382;2022-09-09T09:17:03;14.87;;;1.90;;
4174;SDS011;2101;48.290;14.382;2022-09-09T09:19:31;13.67;;;1.30;;
4174;SDS011;2101;48.290;14.382;2022-09-09T09:24:38;20.73;;;1.77;;
4174;SDS011;2101;48.290;14.382;2022-09-09T09:27:15;29.67;;;2.37;;
4174;SDS011;2101;48.290;14.382;2022-09-09T09:29:42;16.33;;;2.33;;
4174;SDS011;2101;48.290;14.382;2022-09-09T09:32:11;16.77;;;2.13;;
4174;SDS011;2101;48.290;14.382;2022-09-09T09:34:39;15.23;;;1.87;;
4174;SDS011;2101;48.290;14.382;2022-09-09T09:37:07;17.70;;;1.60;;
4174;SDS011;2101;48.290;14.382;2022-09-09T09:39:38;15.80;;;2.00;;
4174;SDS011;2101;48.290;14.382;2022-09-09T09:42:22;20.27;;;2.80;;
4174;SDS011;2101;48.290;14.382;2022-09-09T09:44:49;22.80;;;2.10;;
4174;SDS011;2101;48.290;14.382;2022-09-09T09:47:16;18.10;;;1.97;;
4174;SDS011;2101;48.290;14.382;2022-09-09T09:49:58;16.83;;;2.40;;
4174;SDS011;2101;48.290;14.382;2022-09-09T09:52:30;18.90;;;3.40;;
4174;SDS011;2101;48.290;14.382;2022-09-09T09:54:57;22.23;;;3.60;;
4174;SDS011;2101;48.290;14.382;2022-09-09T09:57:28;23.03;;;4.47;;
4174;SDS011;2101;48.290;14.382;2022-09-09T10:00:03;21.27;;;4.67;;
4174;SDS011;2101;48.290;14.382;2022-09-09T10:02:36;27.43;;;5.40;;
4174;SDS011;2101;48.290;14.382;2022-09-09T10:05:05;24.00;;;4.90;;
4174;SDS011;2101;48.290;14.382;2022-09-09T10:07:31;23.70;;;4.33;;
4174;SDS011;2101;48.290;14.382;2022-09-09T10:09:58;18.60;;;3.00;;
4174;SDS011;2101;48.290;14.382;2022-09-09T10:12:46;16.30;;;2.77;;
4174;SDS011;2101;48.290;14.382;2022-09-09T10:15:21;17.23;;;2.80;;
4174;SDS011;2101;48.290;14.382;2022-09-09T10:48:40;19.40;;;2.73;;
4174;SDS011;2101;48.290;14.382;2022-09-09T10:56:15;16.63;;;3.10;;
4174;SDS011;2101;48.290;14.382;2022-09-09T10:58:44;16.73;;;2.20;;
4174;SDS011;2101;48.290;14.382;2022-09-09T11:01:17;20.43;;;3.67;;
4174;SDS011;2101;48.290;14.382;2022-09-09T11:03:44;17.63;;;2.80;;
4174;SDS011;2101;48.290;14.382;2022-09-09T11:06:14;17.97;;;3.17;;
4174;SDS011;2101;48.290;14.382;2022-09-09T11:08:42;16.37;;;2.50;;
4174;SDS011;2101;48.290;14.382;2022-09-09T11:11:20;16.20;;;2.60;;
4174;SDS011;2101;48.290;14.382;2022-09-09T11:16:30;17.50;;;2.77;;
4174;SDS011;2101;48.290;14.382;2022-09-09T11:21:45;20.93;;;2.37;;
4174;SDS011;2101;48.290;14.382;2022-09-09T11:24:22;17.50;;;2.47;;
4174;SDS011;2101;48.290;14.382;2022-09-09T11:26:57;17.23;;;2.40;;
4174;SDS011;2101;48.290;14.382;2022-09-09T11:29:32;16.70;;;2.30;;
4174;SDS011;2101;48.290;14.382;2022-09-09T11:35:24;22.70;;;3.60;;
4174;SDS011;2101;48.290;14.382;2022-09-09T11:37:44;23.10;;;3.67;;
4174;SDS011;2101;48.290;14.382;2022-09-09T11:40:16;20.30;;;3.80;;
4174;SDS011;2101;48.290;14.382;2022-09-09T11:42:43;27.30;;;4.47;;
4174;SDS011;2101;48.290;14.382;2022-09-09T11:45:30;30.10;;;5.90;;
4174;SDS011;2101;48.290;14.382;2022-09-09T11:47:56;27.97;;;6.93;;
4174;SDS011;2101;48.290;14.382;2022-09-09T11:52:49;26.10;;;6.50;;
4174;SDS011;2101;48.290;14.382;2022-09-09T11:55:29;33.23;;;6.60;;
4174;SDS011;2101;48.290;14.382;2022-09-09T11:58:04;35.57;;;9.00;;
4174;SDS011;2101;48.290;14.382;2022-09-09T12:00:32;30.40;;;7.97;;
4174;SDS011;2101;48.290;14.382;2022-09-09T12:03:00;31.93;;;8.20;;
4174;SDS011;2101;48.290;14.382;2022-09-09T12:05:39;32.50;;;10.00;;
4174;SDS011;2101;48.290;14.382;2022-09-09T12:08:07;30.73;;;8.57;;
4174;SDS011;2101;48.290;14.382;2022-09-09T12:10:36;24.60;;;6.93;;
4174;SDS011;2101;48.290;14.382;2022-09-09T12:13:13;22.80;;;5.90;;
4174;SDS011;2101;48.290;14.382;2022-09-09T12:15:49;25.87;;;5.87;;
4174;SDS011;2101;48.290;14.382;2022-09-09T12:18:23;22.57;;;5.37;;
4174;SDS011;2101;48.290;14.382;2022-09-09T12:20:52;21.13;;;5.80;;
4174;SDS011;2101;48.290;14.382;2022-09-09T12:28:22;24.77;;;5.50;;
4174;SDS011;2101;48.290;14.382;2022-09-09T12:33:39;23.43;;;5.80;;
4174;SDS011;2101;48.290;14.382;2022-09-09T12:36:12;21.80;;;4.90;;
4174;SDS011;2101;48.290;14.382;2022-09-09T12:38:39;20.97;;;5.10;;
4174;SDS011;2101;48.290;14.382;2022-09-09T12:41:06;18.90;;;4.47;;
4174;SDS011;2101;48.290;14.382;2022-09-09T12:43:32;20.77;;;4.27;;
4174;SDS011;2101;48.290;14.382;2022-09-09T12:46:03;35.90;;;4.20;;
4174;SDS011;2101;48.290;14.382;2022-09-09T12:50:59;18.00;;;4.33;;
4174;SDS011;2101;48.290;14.382;2022-09-09T12:53:30;22.03;;;4.17;;
4174;SDS011;2101;48.290;14.382;2022-09-09T12:56:01;19.40;;;3.97;;
4174;SDS011;2101;48.290;14.382;2022-09-09T12:58:27;17.80;;;3.83;;
4174;SDS011;2101;48.290;14.382;2022-09-09T13:00:58;18.90;;;3.63;;
4174;SDS011;2101;48.290;14.382;2022-09-09T13:03:24;19.73;;;3.40;;
4174;SDS011;2101;48.290;14.382;2022-09-09T13:05:51;16.73;;;2.77;;
4174;SDS011;2101;48.290;14.382;2022-09-09T13:08:18;18.23;;;2.97;;
4174;SDS011;2101;48.290;14.382;2022-09-09T13:10:49;15.80;;;2.53;;
4174;SDS011;2101;48.290;14.382;2022-09-09T13:13:43;23.77;;;2.60;;
4174;SDS011;2101;48.290;14.382;2022-09-09T13:19:00;19.40;;;3.53;;
4174;SDS011;2101;48.290;14.382;2022-09-09T13:21:33;21.20;;;3.77;;
4174;SDS011;2101;48.290;14.382;2022-09-09T13:24:00;21.43;;;4.60;;
4174;SDS011;2101;48.290;14.382;2022-09-09T13:26:28;16.60;;;2.93;;
4174;SDS011;2101;48.290;14.382;2022-09-09T13:28:55;20.27;;;3.93;;
4174;SDS011;2101;48.290;14.382;2022-09-09T13:31:33;16.50;;;2.77;;
4174;SDS011;2101;48.290;14.382;2022-09-09T13:36:46;18.90;;;3.70;;
4174;SDS011;2101;48.290;14.382;2022-09-09T13:39:16;16.93;;;3.03;;
4174;SDS011;2101;48.290;14.382;2022-09-09T13:41:44;18.53;;;3.30;;
4174;SDS011;2101;48.290;14.382;2022-09-09T13:44:24;16.93;;;3.20;;
4174;SDS011;2101;48.290;14.382;2022-09-09T13:47:01;20.30;;;3.57;;
4174;SDS011;2101;48.290;14.382;2022-09-09T13:49:28;17.77;;;3.00;;
4174;SDS011;2101;48.290;14.382;2022-09-09T13:54:51;17.20;;;2.70;;
4174;SDS011;2101;48.290;14.382;2022-09-09T13:57:20;22.47;;;2.83;;
4174;SDS011;2101;48.290;14.382;2022-09-09T13:59:47;15.67;;;2.43;;
4174;SDS011;2101;48.290;14.382;2022-09-09T14:02:14;15.67;;;2.43;;
4174;SDS011;2101;48.290;14.382;2022-09-09T14:04:41;16.20;;;2.60;;
4174;SDS011;2101;48.290;14.382;2022-09-09T14:07:17;17.37;;;2.93;;
4174;SDS011;2101;48.290;14.382;2022-09-09T14:09:43;15.10;;;2.27;;
4174;SDS011;2101;48.290;14.382;2022-09-09T14:12:14;18.27;;;2.83;;
4174;SDS011;2101;48.290;14.382;2022-09-09T14:14:41;16.40;;;3.13;;
4174;SDS011;2101;48.290;14.382;2022-09-09T14:17:07;18.50;;;3.30;;
4174;SDS011;2101;48.290;14.382;2022-09-09T14:19:34;19.50;;;3.70;;
4174;SDS011;2101;48.290;14.382;2022-09-09T14:22:00;25.57;;;3.50;;
4174;SDS011;2101;48.290;14.382;2022-09-09T14:24:26;19.57;;;3.90;;
4174;SDS011;2101;48.290;14.382;2022-09-09T14:26:55;21.40;;;3.57;;
4174;SDS011;2101;48.290;14.382;2022-09-09T14:29:22;19.10;;;3.77;;
4174;SDS011;2101;48.290;14.382;2022-09-09T14:31:50;24.13;;;3.70;;
4174;SDS011;2101;48.290;14.382;2022-09-09T14:34:16;21.90;;;3.90;;
4174;SDS011;2101;48.290;14.382;2022-09-09T14:36:42;17.80;;;2.97;;
4174;SDS011;2101;48.290;14.382;2022-09-09T14:39:09;17.73;;;3.10;;
4174;SDS011;2101;48.290;14.382;2022-09-09T14:41:35;19.97;;;3.03;;
4174;SDS011;2101;48.290;14.382;2022-09-09T14:44:02;18.00;;;3.40;;
4174;SDS011;2101;48.290;14.382;2022-09-09T14:46:29;17.53;;;2.90;;
4174;SDS011;2101;48.290;14.382;2022-09-09T14:48:56;16.30;;;2.47;;
4174;SDS011;2101;48.290;14.382;2022-09-09T14:51:22;16.90;;;2.60;;
4174;SDS011;2101;48.290;14.382;2022-09-09T14:53:52;15.20;;;2.30;;
4174;SDS011;2101;48.290;14.382;2022-09-09T14:56:19;18.87;;;2.50;;
4174;SDS011;2101;48.290;14.382;2022-09-09T14:58:47;17.00;;;2.17;;
4174;SDS011;2101;48.290;14.382;2022-09-09T15:01:14;17.90;;;2.53;;
4174;SDS011;2101;48.290;14.382;2022-09-09T15:03:48;17.00;;;2.77;;
4174;SDS011;2101;48.290;14.382;2022-09-09T15:06:14;24.10;;;2.43;;
4174;SDS011;2101;48.290;14.382;2022-09-09T15:08:44;15.97;;;1.97;;
4174;SDS011;2101;48.290;14.382;2022-09-09T15:11:11;19.67;;;3.00;;
4174;SDS011;2101;48.290;14.382;2022-09-09T15:13:38;17.17;;;2.77;;
4174;SDS011;2101;48.290;14.382;2022-09-09T15:16:12;17.13;;;2.97;;
4174;SDS011;2101;48.290;14.382;2022-09-09T15:18:39;15.20;;;2.30;;
4174;SDS011;2101;48.290;14.382;2022-09-09T15:21:08;16.63;;;2.80;;
4174;SDS011;2101;48.290;14.382;2022-09-09T15:23:34;17.37;;;2.90;;
4174;SDS011;2101;48.290;14.382;2022-09-09T15:26:01;17.83;;;3.40;;
4174;SDS011;2101;48.290;14.382;2022-09-09T15:28:27;16.37;;;3.10;;
4174;SDS011;2101;48.290;14.382;2022-09-09T15:30:53;20.30;;;3.00;;
4174;SDS011;2101;48.290;14.382;2022-09-09T15:33:21;17.20;;;3.13;;
4174;SDS011;2101;48.290;14.382;2022-09-09T15:35:48;20.33;;;3.10;;
4174;SDS011;2101;48.290;14.382;2022-09-09T15:38:15;17.60;;;3.47;;
4174;SDS011;2101;48.290;14.382;2022-09-09T15:40:42;23.50;;;3.30;;
4174;SDS011;2101;48.290;14.382;2022-09-09T15:43:08;17.27;;;3.30;;
4174;SDS011;2101;48.290;14.382;2022-09-09T15:45:36;17.20;;;3.00;;
4174;SDS011;2101;48.290;14.382;2022-09-09T15:48:02;17.93;;;3.47;;
4174;SDS011;2101;48.290;14.382;2022-09-09T15:50:29;17.10;;;2.53;;
4174;SDS011;2101;48.290;14.382;2022-09-09T15:52:57;16.87;;;2.60;;
4174;SDS011;2101;48.290;14.382;2022-09-09T15:55:23;16.53;;;2.80;;
4174;SDS011;2101;48.290;14.382;2022-09-09T15:57:50;17.50;;;3.40;;
4174;SDS011;2101;48.290;14.382;2022-09-09T16:00:20;18.77;;;3.07;;
4174;SDS011;2101;48.290;14.382;2022-09-09T16:02:48;16.63;;;2.83;;
4174;SDS011;2101;48.290;14.382;2022-09-09T16:05:14;19.80;;;3.00;;
4174;SDS011;2101;48.290;14.382;2022-09-09T16:07:40;20.27;;;3.00;;
4174;SDS011;2101;48.290;14.382;2022-09-09T16:10:07;19.33;;;3.70;;
4174;SDS011;2101;48.290;14.382;2022-09-09T16:12:34;17.90;;;2.57;;
4174;SDS011;2101;48.290;14.382;2022-09-09T16:15:00;16.63;;;2.60;;
4174;SDS011;2101;48.290;14.382;2022-09-09T16:17:26;20.97;;;3.00;;
4174;SDS011;2101;48.290;14.382;2022-09-09T16:19:52;17.80;;;3.30;;
4174;SDS011;2101;48.290;14.382;2022-09-09T16:22:19;16.40;;;2.70;;
4174;SDS011;2101;48.290;14.382;2022-09-09T16:24:45;16.40;;;2.90;;
4174;SDS011;2101;48.290;14.382;2022-09-09T16:27:11;25.60;;;2.87;;
4174;SDS011;2101;48.290;14.382;2022-09-09T16:29:39;16.70;;;2.67;;
4174;SDS011;2101;48.290;14.382;2022-09-09T16:32:05;16.90;;;2.93;;
4174;SDS011;2101;48.290;14.382;2022-09-09T16:34:31;16.43;;;2.67;;
4174;SDS011;2101;48.290;14.382;2022-09-09T16:36:58;18.00;;;2.90;;
4174;SDS011;2101;48.290;14.382;2022-09-09T16:39:26;16.33;;;2.67;;
4174;SDS011;2101;48.290;14.382;2022-09-09T16:41:52;18.70;;;3.00;;
4174;SDS011;2101;48.290;14.382;2022-09-09T16:44:18;17.50;;;2.60;;
4174;SDS011;2101;48.290;14.382;2022-09-09T16:46:45;17.50;;;2.53;;
4174;SDS011;2101;48.290;14.382;2022-09-09T16:49:13;17.07;;;2.77;;
4174;SDS011;2101;48.290;14.382;2022-09-09T16:51:45;16.20;;;2.47;;
4174;SDS011;2101;48.290;14.382;2022-09-09T16:54:12;18.03;;;2.80;;
4174;SDS011;2101;48.290;14.382;2022-09-09T16:56:40;20.03;;;3.17;;
4174;SDS011;2101;48.290;14.382;2022-09-09T16:59:16;18.10;;;3.30;;
4174;SDS011;2101;48.290;14.382;2022-09-09T17:01:44;18.40;;;3.43;;
4174;SDS011;2101;48.290;14.382;2022-09-09T17:04:11;21.00;;;3.80;;
4174;SDS011;2101;48.290;14.382;2022-09-09T17:06:38;20.70;;;3.70;;